This is the latest recevied weather packets stored in our database for station/object HB9EKO-12. If no packets are shown the sender has not sent any weather packets the latest 10 day(s).
| Time | Temp. | Humidity | Pressure | Rain* | Wind** | Luminosity | Snow |
|---|---|---|---|---|---|---|---|
| 1777266426 | 7.78° C | 70% | 1022 hPa | - | - | - | - |
| 1777265520 | 7.22° C | 72% | 1022 hPa | - | - | - | - |
| 1777264615 | 7.78° C | 68% | 1022 hPa | - | - | - | - |
| 1777263710 | 7.78° C | 68% | 1021 hPa | - | - | - | - |
| 1777262805 | 7.78° C | 68% | 1021 hPa | - | - | - | - |
| 1777261899 | 7.78° C | 68% | 1021 hPa | - | - | - | - |
| 1777260994 | 7.78° C | 68% | 1021 hPa | - | - | - | - |
| 1777260089 | 8.33° C | 65% | 1021 hPa | - | - | - | - |
| 1777259184 | 8.89° C | 63% | 1021 hPa | - | - | - | - |
| 1777258278 | 8.89° C | 63% | 1021 hPa | - | - | - | - |
| 1777257373 | 8.33° C | 63% | 1021 hPa | - | - | - | - |
| 1777256468 | 8.33° C | 62% | 1021 hPa | - | - | - | - |
| 1777255563 | 9.44° C | 59% | 1021 hPa | - | - | - | - |
| 1777254658 | 9.44° C | 58% | 1021 hPa | - | - | - | - |
| 1777253752 | 9.44° C | 58% | 1021 hPa | - | - | - | - |
| 1777252847 | 9.44° C | 57% | 1021 hPa | - | - | - | - |
| 1777251942 | 10° C | 55% | 1022 hPa | - | - | - | - |
| 1777251036 | 10° C | 55% | 1022 hPa | - | - | - | - |
| 1777250131 | 10° C | 54% | 1022 hPa | - | - | - | - |
| 1777249226 | 10° C | 52% | 1022 hPa | - | - | - | - |
| 1777248321 | 8.89° C | 56% | 1022 hPa | - | - | - | - |
| 1777247416 | 11.11° C | 48% | 1022 hPa | - | - | - | - |
| 1777246511 | 10.56° C | 48% | 1022 hPa | - | - | - | - |
| 1777245605 | 10° C | 47% | 1022 hPa | - | - | - | - |
| 1777244700 | 10.56° C | 47% | 1022 hPa | - | - | - | - |
* Rain since midnight (hover to see other rain measurements)
** Current wind speed in m/s (hover to see current wind gust speed)